sensor_id;sensor_type;location;lat;lon;timestamp;pressure;altitude;pressure_sealevel;temperature;humidity
48800;BME280;34611;47.964;7.982;2024-01-06T00:04:30;95618.88;;;10.74;60.60
48800;BME280;34611;47.964;7.982;2024-01-06T00:11:30;95609.31;;;10.75;60.70
48800;BME280;34611;47.964;7.982;2024-01-06T00:18:30;95619.88;;;10.73;60.65
48800;BME280;34611;47.964;7.982;2024-01-06T00:25:31;95627.81;;;10.72;60.85
48800;BME280;34611;47.964;7.982;2024-01-06T00:32:31;95635.59;;;10.72;60.85
48800;BME280;34611;47.964;7.982;2024-01-06T00:39:31;95638.22;;;10.72;60.81
48800;BME280;34611;47.964;7.982;2024-01-06T00:46:31;95640.00;;;10.71;60.81
48800;BME280;34611;47.964;7.982;2024-01-06T00:53:32;95659.16;;;10.70;60.97
48800;BME280;34611;47.964;7.982;2024-01-06T01:00:32;95666.94;;;10.70;60.67
48800;BME280;34611;47.964;7.982;2024-01-06T01:07:32;95675.72;;;10.69;60.71
48800;BME280;34611;47.964;7.982;2024-01-06T01:14:32;95687.75;;;10.70;60.85
48800;BME280;34611;47.964;7.982;2024-01-06T01:21:33;95686.94;;;10.70;60.90
48800;BME280;34611;47.964;7.982;2024-01-06T01:28:33;95691.31;;;10.69;60.69
48800;BME280;34611;47.964;7.982;2024-01-06T01:35:33;95705.28;;;10.68;60.51
48800;BME280;34611;47.964;7.982;2024-01-06T01:42:33;95714.88;;;10.68;60.61
48800;BME280;34611;47.964;7.982;2024-01-06T01:49:34;95717.47;;;10.68;60.54
48800;BME280;34611;47.964;7.982;2024-01-06T01:56:35;95721.84;;;10.67;60.64
48800;BME280;34611;47.964;7.982;2024-01-06T02:03:36;95733.06;;;10.68;60.59
48800;BME280;34611;47.964;7.982;2024-01-06T02:10:37;95729.66;;;10.67;60.56
48800;BME280;34611;47.964;7.982;2024-01-06T02:17:37;95735.00;;;10.66;60.55
48800;BME280;34611;47.964;7.982;2024-01-06T02:24:39;95731.59;;;10.65;60.46
48800;BME280;34611;47.964;7.982;2024-01-06T02:31:40;95751.41;;;10.66;60.51
48800;BME280;34611;47.964;7.982;2024-01-06T02:38:40;95749.78;;;10.65;60.38
48800;BME280;34611;47.964;7.982;2024-01-06T02:45:40;95748.97;;;10.65;60.43
48800;BME280;34611;47.964;7.982;2024-01-06T02:52:41;95755.00;;;10.65;60.51
48800;BME280;34611;47.964;7.982;2024-01-06T02:59:41;95751.59;;;10.65;60.50
48800;BME280;34611;47.964;7.982;2024-01-06T03:06:41;95750.75;;;10.64;60.58
48800;BME280;34611;47.964;7.982;2024-01-06T03:13:41;95739.53;;;10.64;60.17
48800;BME280;34611;47.964;7.982;2024-01-06T03:20:42;95748.16;;;10.64;60.21
48800;BME280;34611;47.964;7.982;2024-01-06T03:27:42;95748.31;;;10.63;60.41
48800;BME280;34611;47.964;7.982;2024-01-06T03:34:44;95743.13;;;10.63;60.26
48800;BME280;34611;47.964;7.982;2024-01-06T03:41:44;95742.47;;;10.61;60.05
48800;BME280;34611;47.964;7.982;2024-01-06T03:48:45;95744.09;;;10.62;59.96
48800;BME280;34611;47.964;7.982;2024-01-06T03:55:46;95747.81;;;10.59;59.87
48800;BME280;34611;47.964;7.982;2024-01-06T04:02:46;95748.63;;;10.60;60.08
48800;BME280;34611;47.964;7.982;2024-01-06T04:09:46;95753.81;;;10.60;59.99
48800;BME280;34611;47.964;7.982;2024-01-06T04:16:46;95752.19;;;10.59;59.72
48800;BME280;34611;47.964;7.982;2024-01-06T04:23:47;95749.75;;;10.57;59.81
48800;BME280;34611;47.964;7.982;2024-01-06T04:30:47;95759.34;;;10.57;59.71
48800;BME280;34611;47.964;7.982;2024-01-06T04:37:47;95756.75;;;10.57;59.64
48800;BME280;34611;47.964;7.982;2024-01-06T04:44:48;95758.50;;;10.56;59.59
48800;BME280;34611;47.964;7.982;2024-01-06T04:51:48;95757.69;;;10.56;59.67
48800;BME280;34611;47.964;7.982;2024-01-06T04:58:49;95757.69;;;10.56;59.71
48800;BME280;34611;47.964;7.982;2024-01-06T05:05:49;95762.91;;;10.56;59.71
48800;BME280;34611;47.964;7.982;2024-01-06T05:12:49;95769.88;;;10.55;59.66
48800;BME280;34611;47.964;7.982;2024-01-06T05:19:50;95777.69;;;10.55;59.68
48800;BME280;34611;47.964;7.982;2024-01-06T05:26:50;95785.47;;;10.55;59.82
48800;BME280;34611;47.964;7.982;2024-01-06T05:33:50;95785.63;;;10.53;59.78
48800;BME280;34611;47.964;7.982;2024-01-06T05:40:50;95788.22;;;10.53;59.54
48800;BME280;34611;47.964;7.982;2024-01-06T05:47:51;95802.03;;;10.54;59.47
48800;BME280;34611;47.964;7.982;2024-01-06T05:54:51;95803.00;;;10.53;59.43
48800;BME280;34611;47.964;7.982;2024-01-06T06:01:51;95812.59;;;10.52;59.58
48800;BME280;34611;47.964;7.982;2024-01-06T06:08:52;95813.41;;;10.53;59.60
48800;BME280;34611;47.964;7.982;2024-01-06T06:15:52;95804.13;;;10.50;59.40
48800;BME280;34611;47.964;7.982;2024-01-06T06:22:53;95824.75;;;10.52;59.31
48800;BME280;34611;47.964;7.982;2024-01-06T06:29:54;95829.94;;;10.52;59.41
48800;BME280;34611;47.964;7.982;2024-01-06T06:36:54;95850.91;;;10.50;59.09
48800;BME280;34611;47.964;7.982;2024-01-06T06:43:54;95862.91;;;10.51;59.38
48800;BME280;34611;47.964;7.982;2024-01-06T06:50:55;95866.50;;;10.50;59.36
48800;BME280;34611;47.964;7.982;2024-01-06T06:57:55;95870.03;;;10.49;59.35
48800;BME280;34611;47.964;7.982;2024-01-06T07:04:55;95883.03;;;10.49;59.33
48800;BME280;34611;47.964;7.982;2024-01-06T07:11:56;95880.44;;;10.49;59.59
48800;BME280;34611;47.964;7.982;2024-01-06T07:18:57;95879.44;;;10.42;59.53
48800;BME280;34611;47.964;7.982;2024-01-06T07:25:57;95889.28;;;10.39;59.61
48800;BME280;34611;47.964;7.982;2024-01-06T07:32:58;95895.47;;;10.38;59.59
48800;BME280;34611;47.964;7.982;2024-01-06T07:39:58;95900.66;;;10.38;59.59
48800;BME280;34611;47.964;7.982;2024-01-06T07:46:58;95906.00;;;10.36;59.66
48800;BME280;34611;47.964;7.982;2024-01-06T07:53:59;95910.47;;;10.44;59.46
48800;BME280;34611;47.964;7.982;2024-01-06T08:01:00;95909.94;;;10.40;59.50
48800;BME280;34611;47.964;7.982;2024-01-06T08:08:00;95910.22;;;10.37;59.48
48800;BME280;34611;47.964;7.982;2024-01-06T08:15:00;95913.28;;;10.32;59.25
48800;BME280;34611;47.964;7.982;2024-01-06T08:22:00;95913.41;;;10.31;59.19
48800;BME280;34611;47.964;7.982;2024-01-06T08:29:01;95918.47;;;10.32;59.25
48800;BME280;34611;47.964;7.982;2024-01-06T08:36:01;95933.25;;;10.32;59.17
48800;BME280;34611;47.964;7.982;2024-01-06T08:43:01;95939.13;;;10.34;59.04
48800;BME280;34611;47.964;7.982;2024-01-06T08:50:02;95950.44;;;10.33;59.08
48800;BME280;34611;47.964;7.982;2024-01-06T08:57:02;95948.84;;;10.32;59.10
48800;BME280;34611;47.964;7.982;2024-01-06T09:04:03;95960.84;;;10.33;58.66
48800;BME280;34611;47.964;7.982;2024-01-06T09:11:03;95967.81;;;10.32;58.69
48800;BME280;34611;47.964;7.982;2024-01-06T09:18:03;95965.22;;;10.32;58.35
48800;BME280;34611;47.964;7.982;2024-01-06T09:25:04;95969.63;;;10.32;58.33
48800;BME280;34611;47.964;7.982;2024-01-06T09:32:07;95966.03;;;10.33;58.23
48800;BME280;34611;47.964;7.982;2024-01-06T09:39:07;95957.44;;;10.32;58.20
48800;BME280;34611;47.964;7.982;2024-01-06T09:46:10;95967.03;;;10.32;57.91
48800;BME280;34611;47.964;7.982;2024-01-06T09:53:11;95967.69;;;10.34;57.77
48800;BME280;34611;47.964;7.982;2024-01-06T10:00:12;95974.22;;;10.38;57.86
48800;BME280;34611;47.964;7.982;2024-01-06T10:07:12;95978.97;;;10.43;58.01
48800;BME280;34611;47.964;7.982;2024-01-06T10:14:13;95978.00;;;10.44;57.89
48800;BME280;34611;47.964;7.982;2024-01-06T10:21:14;95975.91;;;10.47;58.20
48800;BME280;34611;47.964;7.982;2024-01-06T10:28:17;95976.44;;;10.51;58.08
48800;BME280;34611;47.964;7.982;2024-01-06T10:35:18;95969.75;;;10.48;57.87
48800;BME280;34611;47.964;7.982;2024-01-06T10:42:18;95974.66;;;10.51;58.12
48800;BME280;34611;47.964;7.982;2024-01-06T10:49:19;95969.75;;;10.48;57.80
48800;BME280;34611;47.964;7.982;2024-01-06T10:56:21;95961.00;;;10.49;57.59
48800;BME280;34611;47.964;7.982;2024-01-06T11:03:23;95967.22;;;10.57;56.94
48800;BME280;34611;47.964;7.982;2024-01-06T11:10:24;95974.75;;;10.42;56.87
48800;BME280;34611;47.964;7.982;2024-01-06T11:24:47;95967.09;;;10.40;56.72
48800;BME280;34611;47.964;7.982;2024-01-06T11:46:29;95950.97;;;10.37;56.51
48800;BME280;34611;47.964;7.982;2024-01-06T11:53:29;95967.38;;;10.37;56.57
48800;BME280;34611;47.964;7.982;2024-01-06T12:00:30;95950.16;;;10.36;56.55
48800;BME280;34611;47.964;7.982;2024-01-06T12:07:30;95958.25;;;10.33;56.63
48800;BME280;34611;47.964;7.982;2024-01-06T12:14:31;95945.25;;;10.33;56.15
48800;BME280;34611;47.964;7.982;2024-01-06T12:21:32;95936.88;;;10.39;56.49
48800;BME280;34611;47.964;7.982;2024-01-06T12:28:37;95939.47;;;10.39;56.38
48800;BME280;34611;47.964;7.982;2024-01-06T12:35:38;95935.25;;;10.38;56.35
48800;BME280;34611;47.964;7.982;2024-01-06T12:42:38;95928.94;;;10.41;56.55
48800;BME280;34611;47.964;7.982;2024-01-06T12:49:39;95931.53;;;10.41;56.61
48800;BME280;34611;47.964;7.982;2024-01-06T12:56:40;95925.38;;;10.42;56.63
48800;BME280;34611;47.964;7.982;2024-01-06T13:03:40;95940.00;;;10.43;56.57
48800;BME280;34611;47.964;7.982;2024-01-06T13:10:40;95934.00;;;10.42;56.55
48800;BME280;34611;47.964;7.982;2024-01-06T13:17:40;95940.81;;;10.43;56.77
48800;BME280;34611;47.964;7.982;2024-01-06T13:24:41;95941.63;;;10.44;56.63
48800;BME280;34611;47.964;7.982;2024-01-06T13:31:41;95949.25;;;10.45;56.92
48800;BME280;34611;47.964;7.982;2024-01-06T13:38:42;95948.16;;;10.48;57.05
48800;BME280;34611;47.964;7.982;2024-01-06T13:45:42;95950.59;;;10.49;56.82
48800;BME280;34611;47.964;7.982;2024-01-06T13:52:43;95951.44;;;10.50;57.02
48800;BME280;34611;47.964;7.982;2024-01-06T13:59:45;95951.44;;;10.50;56.86
48800;BME280;34611;47.964;7.982;2024-01-06T14:06:46;95956.47;;;10.51;57.14
48800;BME280;34611;47.964;7.982;2024-01-06T14:13:49;95955.50;;;10.52;57.01
48800;BME280;34611;47.964;7.982;2024-01-06T14:20:49;95962.63;;;10.50;56.95
48800;BME280;34611;47.964;7.982;2024-01-06T14:27:51;95961.66;;;10.51;57.08
48800;BME280;34611;47.964;7.982;2024-01-06T14:34:52;95962.19;;;10.55;57.45
48800;BME280;34611;47.964;7.982;2024-01-06T14:41:53;95970.78;;;10.56;57.12
48800;BME280;34611;47.964;7.982;2024-01-06T14:48:53;95980.22;;;10.57;57.58
48800;BME280;34611;47.964;7.982;2024-01-06T14:55:55;95985.25;;;10.58;57.28
48800;BME280;34611;47.964;7.982;2024-01-06T15:02:55;95994.03;;;10.57;57.24
48800;BME280;34611;47.964;7.982;2024-01-06T15:09:55;95995.81;;;10.57;57.48
48800;BME280;34611;47.964;7.982;2024-01-06T15:16:55;96006.22;;;10.57;57.51
48800;BME280;34611;47.964;7.982;2024-01-06T15:23:56;96003.63;;;10.57;57.49
48800;BME280;34611;47.964;7.982;2024-01-06T15:30:56;96003.91;;;10.53;57.20
48800;BME280;34611;47.964;7.982;2024-01-06T15:37:58;96011.03;;;10.51;57.41
48800;BME280;34611;47.964;7.982;2024-01-06T15:44:58;96011.03;;;10.51;57.31
48800;BME280;34611;47.964;7.982;2024-01-06T15:52:01;96019.63;;;10.52;57.48
48800;BME280;34611;47.964;7.982;2024-01-06T15:59:01;96022.22;;;10.52;57.58
48800;BME280;34611;47.964;7.982;2024-01-06T16:06:02;96025.81;;;10.51;57.42
48800;BME280;34611;47.964;7.982;2024-01-06T16:13:02;96029.22;;;10.51;57.54
48800;BME280;34611;47.964;7.982;2024-01-06T16:20:03;96026.63;;;10.51;57.44
48800;BME280;34611;47.964;7.982;2024-01-06T16:27:03;96030.88;;;10.52;57.55
48800;BME280;34611;47.964;7.982;2024-01-06T16:34:04;96040.94;;;10.56;57.59
48800;BME280;34611;47.964;7.982;2024-01-06T16:41:04;96038.94;;;10.49;57.64
48800;BME280;34611;47.964;7.982;2024-01-06T16:48:04;96037.31;;;10.48;57.68
48800;BME280;34611;47.964;7.982;2024-01-06T16:55:06;96047.72;;;10.48;57.73
48800;BME280;34611;47.964;7.982;2024-01-06T17:02:06;96046.06;;;10.47;57.70
48800;BME280;34611;47.964;7.982;2024-01-06T17:09:07;96054.63;;;10.58;58.07
48800;BME280;34611;47.964;7.982;2024-01-06T17:16:07;96059.72;;;10.49;58.01
48800;BME280;34611;47.964;7.982;2024-01-06T17:23:07;96067.53;;;10.49;57.91
48800;BME280;34611;47.964;7.982;2024-01-06T17:30:08;96059.44;;;10.52;58.11
48800;BME280;34611;47.964;7.982;2024-01-06T17:37:10;96065.31;;;10.55;58.09
48800;BME280;34611;47.964;7.982;2024-01-06T17:44:10;96076.38;;;10.57;58.00
48800;BME280;34611;47.964;7.982;2024-01-06T17:51:10;96081.81;;;10.63;58.00
48800;BME280;34611;47.964;7.982;2024-01-06T17:58:11;96087.53;;;10.67;58.26
48800;BME280;34611;47.964;7.982;2024-01-06T18:05:11;96088.88;;;10.71;58.40
48800;BME280;34611;47.964;7.982;2024-01-06T18:12:11;96092.41;;;10.70;58.38
48800;BME280;34611;47.964;7.982;2024-01-06T18:19:12;96094.75;;;10.73;58.39
48800;BME280;34611;47.964;7.982;2024-01-06T18:26:12;96096.78;;;10.51;58.08
48800;BME280;34611;47.964;7.982;2024-01-06T18:33:13;96093.16;;;10.44;58.25
48800;BME280;34611;47.964;7.982;2024-01-06T18:40:13;96099.59;;;10.40;58.13
48800;BME280;34611;47.964;7.982;2024-01-06T18:47:14;96106.84;;;10.37;58.21
48800;BME280;34611;47.964;7.982;2024-01-06T18:54:15;96102.78;;;10.34;58.18
48800;BME280;34611;47.964;7.982;2024-01-06T19:01:15;96106.50;;;10.31;58.21
48800;BME280;34611;47.964;7.982;2024-01-06T19:08:15;96093.63;;;10.30;58.47
48800;BME280;34611;47.964;7.982;2024-01-06T19:15:16;96098.94;;;10.28;58.46
48800;BME280;34611;47.964;7.982;2024-01-06T19:22:16;96095.66;;;10.26;58.51
48800;BME280;34611;47.964;7.982;2024-01-06T19:29:16;96101.84;;;10.25;58.57
48800;BME280;34611;47.964;7.982;2024-01-06T19:36:16;96106.38;;;10.23;58.41
48800;BME280;34611;47.964;7.982;2024-01-06T19:43:17;96106.88;;;10.27;58.38
48800;BME280;34611;47.964;7.982;2024-01-06T19:50:17;96110.03;;;10.21;58.43
48800;BME280;34611;47.964;7.982;2024-01-06T19:57:17;96095.44;;;10.20;58.55
48800;BME280;34611;47.964;7.982;2024-01-06T20:04:18;96095.75;;;10.17;58.48
48800;BME280;34611;47.964;7.982;2024-01-06T20:11:18;96104.34;;;10.17;58.50
48800;BME280;34611;47.964;7.982;2024-01-06T20:18:18;96098.16;;;10.18;58.49
48800;BME280;34611;47.964;7.982;2024-01-06T20:25:18;96103.53;;;10.17;58.42
48800;BME280;34611;47.964;7.982;2024-01-06T20:32:19;96094.09;;;10.16;58.60
48800;BME280;34611;47.964;7.982;2024-01-06T20:39:19;96094.91;;;10.16;58.61
48800;BME280;34611;47.964;7.982;2024-01-06T20:46:20;96088.22;;;10.13;58.57
48800;BME280;34611;47.964;7.982;2024-01-06T20:53:22;96085.63;;;10.13;58.44
48800;BME280;34611;47.964;7.982;2024-01-06T21:00:22;96079.41;;;10.24;58.76
48800;BME280;34611;47.964;7.982;2024-01-06T21:07:22;96086.66;;;10.21;58.54
48800;BME280;34611;47.964;7.982;2024-01-06T21:14:22;96084.06;;;10.21;58.46
48800;BME280;34611;47.964;7.982;2024-01-06T21:21:23;96089.25;;;10.21;58.30
48800;BME280;34611;47.964;7.982;2024-01-06T21:28:23;96086.66;;;10.21;58.47
48800;BME280;34611;47.964;7.982;2024-01-06T21:35:23;96080.66;;;10.20;58.33
48800;BME280;34611;47.964;7.982;2024-01-06T21:42:24;96075.69;;;10.27;58.60
48800;BME280;34611;47.964;7.982;2024-01-06T21:49:24;96084.75;;;10.23;58.53
48800;BME280;34611;47.964;7.982;2024-01-06T21:56:24;96073.53;;;10.22;58.44
48800;BME280;34611;47.964;7.982;2024-01-06T22:03:25;96085.72;;;10.22;58.60
48800;BME280;34611;47.964;7.982;2024-01-06T22:10:25;96084.91;;;10.21;58.42
48800;BME280;34611;47.964;7.982;2024-01-06T22:17:32;96084.06;;;10.21;58.56
48800;BME280;34611;47.964;7.982;2024-01-06T22:24:33;96089.25;;;10.21;58.44
48800;BME280;34611;47.964;7.982;2024-01-06T22:31:33;96093.66;;;10.20;58.36
48800;BME280;34611;47.964;7.982;2024-01-06T22:38:35;96084.25;;;10.19;58.47
48800;BME280;34611;47.964;7.982;2024-01-06T22:45:36;96079.84;;;10.20;58.39
48800;BME280;34611;47.964;7.982;2024-01-06T22:52:38;96086.00;;;10.19;58.30
48800;BME280;34611;47.964;7.982;2024-01-06T22:59:38;96094.75;;;10.18;58.59
48800;BME280;34611;47.964;7.982;2024-01-06T23:06:38;96089.56;;;10.18;58.50
48800;BME280;34611;47.964;7.982;2024-01-06T23:13:38;96094.75;;;10.18;58.46
48800;BME280;34611;47.964;7.982;2024-01-06T23:20:39;96098.34;;;10.17;58.36
48800;BME280;34611;47.964;7.982;2024-01-06T23:27:39;96101.75;;;10.17;58.19
48800;BME280;34611;47.964;7.982;2024-01-06T23:34:39;96105.28;;;10.16;58.25
48800;BME280;34611;47.964;7.982;2024-01-06T23:41:39;96103.66;;;10.15;58.36
48800;BME280;34611;47.964;7.982;2024-01-06T23:48:40;96108.88;;;10.15;58.25
48800;BME280;34611;47.964;7.982;2024-01-06T23:55:40;96104.63;;;10.14;58.12
